sensor_id;sensor_type;location;lat;lon;timestamp;pressure;altitude;pressure_sealevel;temperature;humidity
50682;BME280;36779;52.168;20.878;2023-12-07T00:02:04;100849.27;;;-1.52;77.04
50682;BME280;36779;52.168;20.878;2023-12-07T00:04:54;100848.34;;;-1.51;77.13
50682;BME280;36779;52.168;20.878;2023-12-07T00:07:43;100853.45;;;-1.55;77.15
50682;BME280;36779;52.168;20.878;2023-12-07T00:10:32;100852.23;;;-1.55;77.16
50682;BME280;36779;52.168;20.878;2023-12-07T00:13:22;100852.19;;;-1.55;77.08
50682;BME280;36779;52.168;20.878;2023-12-07T00:16:11;100856.43;;;-1.52;77.09
50682;BME280;36779;52.168;20.878;2023-12-07T00:19:03;100854.20;;;-1.49;77.16
50682;BME280;36779;52.168;20.878;2023-12-07T00:21:54;100855.59;;;-1.46;77.18
50682;BME280;36779;52.168;20.878;2023-12-07T00:24:44;100858.13;;;-1.44;77.08
50682;BME280;36779;52.168;20.878;2023-12-07T00:27:33;100856.57;;;-1.44;77.12
50682;BME280;36779;52.168;20.878;2023-12-07T00:30:22;100857.83;;;-1.45;77.18
50682;BME280;36779;52.168;20.878;2023-12-07T00:33:11;100858.98;;;-1.47;77.13
50682;BME280;36779;52.168;20.878;2023-12-07T00:36:04;100860.16;;;-1.50;77.24
50682;BME280;36779;52.168;20.878;2023-12-07T00:39:08;100859.30;;;-1.50;77.14
50682;BME280;36779;52.168;20.878;2023-12-07T00:41:57;100858.16;;;-1.48;77.19
50682;BME280;36779;52.168;20.878;2023-12-07T00:44:46;100854.54;;;-1.45;77.16
50682;BME280;36779;52.168;20.878;2023-12-07T00:47:36;100858.44;;;-1.43;77.10
50682;BME280;36779;52.168;20.878;2023-12-07T00:50:25;100859.43;;;-1.38;77.15
50682;BME280;36779;52.168;20.878;2023-12-07T00:53:17;100861.25;;;-1.33;77.22
50682;BME280;36779;52.168;20.878;2023-12-07T00:56:06;100858.34;;;-1.30;77.21
50682;BME280;36779;52.168;20.878;2023-12-07T00:58:55;100862.11;;;-1.33;77.07
50682;BME280;36779;52.168;20.878;2023-12-07T01:01:47;100864.11;;;-1.37;77.09
50682;BME280;36779;52.168;20.878;2023-12-07T01:04:35;100865.50;;;-1.41;77.12
50682;BME280;36779;52.168;20.878;2023-12-07T01:07:31;100863.95;;;-1.46;77.13
50682;BME280;36779;52.168;20.878;2023-12-07T01:10:44;100869.04;;;-1.46;77.21
50682;BME280;36779;52.168;20.878;2023-12-07T01:13:37;100862.88;;;-1.45;77.16
50682;BME280;36779;52.168;20.878;2023-12-07T01:16:25;100865.48;;;-1.41;77.05
50682;BME280;36779;52.168;20.878;2023-12-07T01:19:14;100867.58;;;-1.38;77.15
50682;BME280;36779;52.168;20.878;2023-12-07T01:22:04;100864.57;;;-1.40;77.00
50682;BME280;36779;52.168;20.878;2023-12-07T01:24:53;100864.84;;;-1.42;77.14
50682;BME280;36779;52.168;20.878;2023-12-07T01:27:43;100864.23;;;-1.40;77.21
50682;BME280;36779;52.168;20.878;2023-12-07T01:30:53;100859.14;;;-1.44;77.27
50682;BME280;36779;52.168;20.878;2023-12-07T01:33:43;100862.39;;;-1.42;77.34
50682;BME280;36779;52.168;20.878;2023-12-07T01:36:36;100855.70;;;-1.41;77.38
50682;BME280;36779;52.168;20.878;2023-12-07T01:39:48;100857.18;;;-1.42;77.29
50682;BME280;36779;52.168;20.878;2023-12-07T01:42:38;100856.59;;;-1.45;77.31
50682;BME280;36779;52.168;20.878;2023-12-07T01:45:28;100858.17;;;-1.45;77.37
50682;BME280;36779;52.168;20.878;2023-12-07T01:48:19;100852.71;;;-1.44;77.16
50682;BME280;36779;52.168;20.878;2023-12-07T01:51:06;100849.55;;;-1.44;77.10
50682;BME280;36779;52.168;20.878;2023-12-07T01:53:55;100852.77;;;-1.41;77.28
50682;BME280;36779;52.168;20.878;2023-12-07T01:56:45;100852.23;;;-1.37;77.40
50682;BME280;36779;52.168;20.878;2023-12-07T01:59:35;100849.00;;;-1.32;77.22
50682;BME280;36779;52.168;20.878;2023-12-07T02:02:24;100849.59;;;-1.30;77.21
50682;BME280;36779;52.168;20.878;2023-12-07T02:05:12;100848.35;;;-1.26;77.28
50682;BME280;36779;52.168;20.878;2023-12-07T02:08:04;100852.66;;;-1.21;77.23
50682;BME280;36779;52.168;20.878;2023-12-07T02:10:54;100849.30;;;-1.24;77.17
50682;BME280;36779;52.168;20.878;2023-12-07T02:13:44;100851.15;;;-1.26;77.18
50682;BME280;36779;52.168;20.878;2023-12-07T02:16:35;100853.27;;;-1.27;77.41
50682;BME280;36779;52.168;20.878;2023-12-07T02:19:31;100851.37;;;-1.27;77.47
50682;BME280;36779;52.168;20.878;2023-12-07T02:22:34;100852.94;;;-1.31;77.45
50682;BME280;36779;52.168;20.878;2023-12-07T02:25:32;100854.20;;;-1.31;77.43
50682;BME280;36779;52.168;20.878;2023-12-07T02:28:19;100855.34;;;-1.29;77.45
50682;BME280;36779;52.168;20.878;2023-12-07T02:31:11;100859.84;;;-1.26;77.42
50682;BME280;36779;52.168;20.878;2023-12-07T02:34:04;100861.55;;;-1.21;77.35
50682;BME280;36779;52.168;20.878;2023-12-07T02:36:54;100863.82;;;-1.14;77.46
50682;BME280;36779;52.168;20.878;2023-12-07T02:39:36;100860.96;;;-1.09;77.47
50682;BME280;36779;52.168;20.878;2023-12-07T02:42:26;100864.44;;;-1.12;77.28
50682;BME280;36779;52.168;20.878;2023-12-07T02:45:17;100863.11;;;-1.17;77.36
50682;BME280;36779;52.168;20.878;2023-12-07T02:48:07;100864.27;;;-1.20;77.44
50682;BME280;36779;52.168;20.878;2023-12-07T02:50:59;100862.92;;;-1.21;77.43
50682;BME280;36779;52.168;20.878;2023-12-07T02:53:44;100865.32;;;-1.20;77.43
50682;BME280;36779;52.168;20.878;2023-12-07T02:56:36;100863.12;;;-1.17;77.27
50682;BME280;36779;52.168;20.878;2023-12-07T02:59:27;100863.27;;;-1.17;77.33
50682;BME280;36779;52.168;20.878;2023-12-07T03:02:19;100863.30;;;-1.18;77.38
50682;BME280;36779;52.168;20.878;2023-12-07T03:05:09;100858.17;;;-1.16;77.50
50682;BME280;36779;52.168;20.878;2023-12-07T03:08:01;100858.38;;;-1.17;77.45
50682;BME280;36779;52.168;20.878;2023-12-07T03:10:55;100860.36;;;-1.18;77.42
50682;BME280;36779;52.168;20.878;2023-12-07T03:13:43;100860.71;;;-1.18;77.63
50682;BME280;36779;52.168;20.878;2023-12-07T03:16:22;100857.70;;;-1.17;77.55
50682;BME280;36779;52.168;20.878;2023-12-07T03:19:13;100854.91;;;-1.17;77.43
50682;BME280;36779;52.168;20.878;2023-12-07T03:22:05;100857.37;;;-1.14;77.49
50682;BME280;36779;52.168;20.878;2023-12-07T03:24:55;100860.34;;;-1.10;77.50
50682;BME280;36779;52.168;20.878;2023-12-07T03:27:47;100860.91;;;-1.08;77.54
50682;BME280;36779;52.168;20.878;2023-12-07T03:30:41;100863.17;;;-1.05;77.54
50682;BME280;36779;52.168;20.878;2023-12-07T03:33:31;100865.79;;;-1.05;77.47
50682;BME280;36779;52.168;20.878;2023-12-07T03:36:20;100865.00;;;-1.06;77.53
50682;BME280;36779;52.168;20.878;2023-12-07T03:39:17;100871.52;;;-1.08;77.52
50682;BME280;36779;52.168;20.878;2023-12-07T03:42:08;100866.50;;;-1.05;77.69
50682;BME280;36779;52.168;20.878;2023-12-07T03:45:18;100869.60;;;-1.01;77.60
50682;BME280;36779;52.168;20.878;2023-12-07T03:48:06;100870.64;;;-0.97;77.59
50682;BME280;36779;52.168;20.878;2023-12-07T03:50:55;100872.95;;;-0.94;77.59
50682;BME280;36779;52.168;20.878;2023-12-07T03:53:45;100872.84;;;-0.92;77.59
50682;BME280;36779;52.168;20.878;2023-12-07T03:56:35;100872.80;;;-0.88;77.69
50682;BME280;36779;52.168;20.878;2023-12-07T03:59:24;100873.39;;;-0.89;77.61
50682;BME280;36779;52.168;20.878;2023-12-07T04:02:22;100872.92;;;-0.90;77.68
50682;BME280;36779;52.168;20.878;2023-12-07T04:05:11;100872.16;;;-0.92;77.59
50682;BME280;36779;52.168;20.878;2023-12-07T04:08:01;100875.28;;;-0.95;77.65
50682;BME280;36779;52.168;20.878;2023-12-07T04:10:52;100874.39;;;-0.99;77.67
50682;BME280;36779;52.168;20.878;2023-12-07T04:14:02;100870.67;;;-1.01;77.68
50682;BME280;36779;52.168;20.878;2023-12-07T04:16:54;100874.80;;;-1.04;77.67
50682;BME280;36779;52.168;20.878;2023-12-07T04:19:44;100875.91;;;-1.05;77.61
50682;BME280;36779;52.168;20.878;2023-12-07T04:22:33;100868.86;;;-1.03;77.50
50682;BME280;36779;52.168;20.878;2023-12-07T04:25:22;100867.59;;;-1.02;77.50
50682;BME280;36779;52.168;20.878;2023-12-07T04:28:11;100868.00;;;-1.00;77.49
50682;BME280;36779;52.168;20.878;2023-12-07T04:34:16;100866.96;;;-0.97;77.53
50682;BME280;36779;52.168;20.878;2023-12-07T04:37:04;100865.36;;;-0.96;77.62
50682;BME280;36779;52.168;20.878;2023-12-07T04:39:53;100867.79;;;-0.96;77.59
50682;BME280;36779;52.168;20.878;2023-12-07T04:42:44;100867.05;;;-0.98;77.59
50682;BME280;36779;52.168;20.878;2023-12-07T04:45:32;100866.79;;;-1.00;77.62
50682;BME280;36779;52.168;20.878;2023-12-07T04:48:23;100867.70;;;-1.05;77.70
50682;BME280;36779;52.168;20.878;2023-12-07T04:51:14;100868.36;;;-1.07;77.64
50682;BME280;36779;52.168;20.878;2023-12-07T04:54:04;100867.66;;;-1.07;77.73
50682;BME280;36779;52.168;20.878;2023-12-07T04:57:14;100869.98;;;-1.05;77.63
50682;BME280;36779;52.168;20.878;2023-12-07T05:00:05;100873.38;;;-1.03;77.66
50682;BME280;36779;52.168;20.878;2023-12-07T05:02:54;100873.89;;;-0.99;77.63
50682;BME280;36779;52.168;20.878;2023-12-07T05:05:43;100877.48;;;-0.94;77.67
50682;BME280;36779;52.168;20.878;2023-12-07T05:08:32;100875.29;;;-0.92;77.69
50682;BME280;36779;52.168;20.878;2023-12-07T05:11:21;100874.13;;;-0.93;77.71
50682;BME280;36779;52.168;20.878;2023-12-07T05:14:10;100876.55;;;-0.96;77.68
50682;BME280;36779;52.168;20.878;2023-12-07T05:16:59;100876.09;;;-0.98;77.73
50682;BME280;36779;52.168;20.878;2023-12-07T05:19:49;100881.45;;;-0.97;77.85
50682;BME280;36779;52.168;20.878;2023-12-07T05:22:38;100886.27;;;-0.99;77.82
50682;BME280;36779;52.168;20.878;2023-12-07T05:25:27;100885.89;;;-1.02;77.72
50682;BME280;36779;52.168;20.878;2023-12-07T05:28:17;100885.11;;;-1.04;77.65
50682;BME280;36779;52.168;20.878;2023-12-07T05:31:16;100890.51;;;-1.04;77.65
50682;BME280;36779;52.168;20.878;2023-12-07T05:34:05;100889.64;;;-1.04;77.64
50682;BME280;36779;52.168;20.878;2023-12-07T05:36:55;100890.52;;;-1.04;77.68
50682;BME280;36779;52.168;20.878;2023-12-07T05:39:42;100891.45;;;-1.01;77.62
50682;BME280;36779;52.168;20.878;2023-12-07T05:42:31;100892.50;;;-1.01;77.59
50682;BME280;36779;52.168;20.878;2023-12-07T05:45:21;100892.79;;;-1.04;77.66
50682;BME280;36779;52.168;20.878;2023-12-07T05:48:10;100899.67;;;-1.02;77.81
50682;BME280;36779;52.168;20.878;2023-12-07T05:51:01;100897.83;;;-1.03;77.62
50682;BME280;36779;52.168;20.878;2023-12-07T05:53:55;100904.95;;;-1.06;77.71
50682;BME280;36779;52.168;20.878;2023-12-07T05:56:45;100903.08;;;-1.07;77.76
50682;BME280;36779;52.168;20.878;2023-12-07T05:59:38;100904.30;;;-1.07;77.97
50682;BME280;36779;52.168;20.878;2023-12-07T06:02:21;100906.95;;;-1.08;77.74
50682;BME280;36779;52.168;20.878;2023-12-07T06:05:11;100913.51;;;-1.10;77.83
50682;BME280;36779;52.168;20.878;2023-12-07T06:07:54;100914.38;;;-1.10;77.75
50682;BME280;36779;52.168;20.878;2023-12-07T06:10:44;100914.79;;;-1.07;77.85
50682;BME280;36779;52.168;20.878;2023-12-07T06:13:33;100917.25;;;-1.01;77.90
50682;BME280;36779;52.168;20.878;2023-12-07T06:16:26;100921.16;;;-0.95;77.75
50682;BME280;36779;52.168;20.878;2023-12-07T06:19:15;100922.58;;;-0.88;77.96
50682;BME280;36779;52.168;20.878;2023-12-07T06:22:05;100929.77;;;-0.86;77.88
50682;BME280;36779;52.168;20.878;2023-12-07T06:24:55;100935.70;;;-0.89;77.78
50682;BME280;36779;52.168;20.878;2023-12-07T06:27:45;100939.33;;;-0.92;77.85
50682;BME280;36779;52.168;20.878;2023-12-07T06:30:27;100938.83;;;-0.96;77.82
50682;BME280;36779;52.168;20.878;2023-12-07T06:33:16;100940.67;;;-0.98;77.84
50682;BME280;36779;52.168;20.878;2023-12-07T06:36:08;100943.45;;;-0.98;77.72
50682;BME280;36779;52.168;20.878;2023-12-07T06:39:01;100945.11;;;-0.96;77.82
50682;BME280;36779;52.168;20.878;2023-12-07T06:41:52;100945.91;;;-0.91;77.79
50682;BME280;36779;52.168;20.878;2023-12-07T06:44:45;100946.80;;;-0.91;77.72
50682;BME280;36779;52.168;20.878;2023-12-07T06:47:28;100944.23;;;-0.89;77.77
50682;BME280;36779;52.168;20.878;2023-12-07T06:50:16;100949.98;;;-0.89;77.98
50682;BME280;36779;52.168;20.878;2023-12-07T06:53:05;100955.20;;;-0.88;77.80
50682;BME280;36779;52.168;20.878;2023-12-07T06:55:54;100956.50;;;-0.90;77.90
50682;BME280;36779;52.168;20.878;2023-12-07T06:58:43;100956.77;;;-0.91;77.94
50682;BME280;36779;52.168;20.878;2023-12-07T07:01:33;100961.13;;;-0.96;77.93
50682;BME280;36779;52.168;20.878;2023-12-07T07:04:25;100959.47;;;-0.94;77.88
50682;BME280;36779;52.168;20.878;2023-12-07T07:07:15;100958.93;;;-0.90;77.95
50682;BME280;36779;52.168;20.878;2023-12-07T07:10:08;100960.30;;;-0.85;77.97
50682;BME280;36779;52.168;20.878;2023-12-07T07:13:01;100960.98;;;-0.82;77.88
50682;BME280;36779;52.168;20.878;2023-12-07T07:15:53;100961.46;;;-0.77;77.94
50682;BME280;36779;52.168;20.878;2023-12-07T07:18:38;100962.70;;;-0.71;77.82
50682;BME280;36779;52.168;20.878;2023-12-07T07:21:29;100962.24;;;-0.65;77.97
50682;BME280;36779;52.168;20.878;2023-12-07T07:24:19;100963.14;;;-0.65;77.86
50682;BME280;36779;52.168;20.878;2023-12-07T07:27:08;100956.73;;;-0.66;78.03
50682;BME280;36779;52.168;20.878;2023-12-07T07:29:58;100956.98;;;-0.64;78.02
50682;BME280;36779;52.168;20.878;2023-12-07T07:32:47;100956.50;;;-0.62;78.07
50682;BME280;36779;52.168;20.878;2023-12-07T07:35:37;100956.23;;;-0.60;78.13
50682;BME280;36779;52.168;20.878;2023-12-07T07:38:26;100961.35;;;-0.58;78.08
50682;BME280;36779;52.168;20.878;2023-12-07T07:41:15;100962.82;;;-0.62;77.84
50682;BME280;36779;52.168;20.878;2023-12-07T07:44:05;100959.86;;;-0.62;78.04
50682;BME280;36779;52.168;20.878;2023-12-07T07:46:55;100960.98;;;-0.57;77.96
50682;BME280;36779;52.168;20.878;2023-12-07T07:49:44;100957.89;;;-0.52;78.04
50682;BME280;36779;52.168;20.878;2023-12-07T07:52:34;100953.70;;;-0.44;78.09
50682;BME280;36779;52.168;20.878;2023-12-07T07:55:24;100953.54;;;-0.34;78.23
50682;BME280;36779;52.168;20.878;2023-12-07T07:58:12;100954.41;;;-0.28;78.32
50682;BME280;36779;52.168;20.878;2023-12-07T08:04:12;100962.73;;;-0.16;78.32
50682;BME280;36779;52.168;20.878;2023-12-07T08:07:03;100960.88;;;-0.14;78.27
50682;BME280;36779;52.168;20.878;2023-12-07T08:09:52;100962.36;;;-0.15;78.21
50682;BME280;36779;52.168;20.878;2023-12-07T08:12:42;100961.54;;;-0.16;78.28
50682;BME280;36779;52.168;20.878;2023-12-07T08:15:31;100962.84;;;-0.15;78.10
50682;BME280;36779;52.168;20.878;2023-12-07T08:18:21;100960.35;;;-0.11;78.11
50682;BME280;36779;52.168;20.878;2023-12-07T08:21:20;100966.87;;;-0.05;78.19
50682;BME280;36779;52.168;20.878;2023-12-07T08:24:15;100970.19;;;-0.01;77.97
50682;BME280;36779;52.168;20.878;2023-12-07T08:27:06;100974.86;;;-0.01;77.96
50682;BME280;36779;52.168;20.878;2023-12-07T08:29:55;100976.05;;;0.00;78.06
50682;BME280;36779;52.168;20.878;2023-12-07T08:32:45;100982.10;;;0.02;78.03
50682;BME280;36779;52.168;20.878;2023-12-07T08:35:35;100985.45;;;-0.03;78.00
50682;BME280;36779;52.168;20.878;2023-12-07T08:38:45;100988.64;;;-0.04;78.13
50682;BME280;36779;52.168;20.878;2023-12-07T08:41:35;100987.58;;;0.03;78.06
50682;BME280;36779;52.168;20.878;2023-12-07T08:44:25;100991.43;;;0.13;78.21
50682;BME280;36779;52.168;20.878;2023-12-07T08:47:13;100989.75;;;0.18;78.08
50682;BME280;36779;52.168;20.878;2023-12-07T08:50:06;100984.84;;;0.22;78.23
50682;BME280;36779;52.168;20.878;2023-12-07T08:52:57;100981.46;;;0.23;78.19
50682;BME280;36779;52.168;20.878;2023-12-07T08:55:43;100980.96;;;0.22;78.16
50682;BME280;36779;52.168;20.878;2023-12-07T08:58:33;100976.82;;;0.22;78.18
50682;BME280;36779;52.168;20.878;2023-12-07T09:01:23;100976.11;;;0.22;78.13
50682;BME280;36779;52.168;20.878;2023-12-07T09:04:24;100977.95;;;0.20;78.14
50682;BME280;36779;52.168;20.878;2023-12-07T09:07:13;100981.17;;;0.19;78.18
50682;BME280;36779;52.168;20.878;2023-12-07T09:10:07;100980.61;;;0.19;78.10
50682;BME280;36779;52.168;20.878;2023-12-07T09:12:48;100982.80;;;0.21;78.12
50682;BME280;36779;52.168;20.878;2023-12-07T09:15:38;100982.40;;;0.29;78.16
50682;BME280;36779;52.168;20.878;2023-12-07T09:18:28;100984.31;;;0.32;78.02
50682;BME280;36779;52.168;20.878;2023-12-07T09:21:18;100985.58;;;0.35;78.02
50682;BME280;36779;52.168;20.878;2023-12-07T09:24:08;100989.25;;;0.35;78.11
50682;BME280;36779;52.168;20.878;2023-12-07T09:26:57;100990.70;;;0.37;78.25
50682;BME280;36779;52.168;20.878;2023-12-07T09:29:47;100992.84;;;0.39;78.30
50682;BME280;36779;52.168;20.878;2023-12-07T09:32:38;100987.92;;;0.36;78.11
50682;BME280;36779;52.168;20.878;2023-12-07T09:35:27;100986.70;;;0.37;78.21
50682;BME280;36779;52.168;20.878;2023-12-07T09:38:17;100987.70;;;0.41;78.17
50682;BME280;36779;52.168;20.878;2023-12-07T09:41:06;100984.63;;;0.46;78.22
50682;BME280;36779;52.168;20.878;2023-12-07T09:43:57;100980.24;;;0.52;78.20
50682;BME280;36779;52.168;20.878;2023-12-07T09:46:46;100977.77;;;0.59;78.38
50682;BME280;36779;52.168;20.878;2023-12-07T09:49:36;100983.09;;;0.68;78.43
50682;BME280;36779;52.168;20.878;2023-12-07T09:52:25;100981.84;;;0.71;78.32
50682;BME280;36779;52.168;20.878;2023-12-07T09:55:16;100987.36;;;0.70;78.34
50682;BME280;36779;52.168;20.878;2023-12-07T09:58:06;100987.39;;;0.69;78.24
50682;BME280;36779;52.168;20.878;2023-12-07T10:00:57;100989.65;;;0.69;78.25
50682;BME280;36779;52.168;20.878;2023-12-07T10:03:47;100988.45;;;0.65;77.97
50682;BME280;36779;52.168;20.878;2023-12-07T10:06:43;100988.90;;;0.67;78.07
50682;BME280;36779;52.168;20.878;2023-12-07T10:09:33;100993.88;;;0.72;78.10
50682;BME280;36779;52.168;20.878;2023-12-07T10:12:22;100991.73;;;0.73;77.98
50682;BME280;36779;52.168;20.878;2023-12-07T10:15:12;100996.04;;;0.74;78.04
50682;BME280;36779;52.168;20.878;2023-12-07T10:18:01;100996.45;;;0.79;78.10
50682;BME280;36779;52.168;20.878;2023-12-07T10:20:46;100999.04;;;0.80;78.06
50682;BME280;36779;52.168;20.878;2023-12-07T10:23:37;100998.94;;;0.76;78.15
50682;BME280;36779;52.168;20.878;2023-12-07T10:26:27;100995.21;;;0.76;78.19
50682;BME280;36779;52.168;20.878;2023-12-07T10:29:18;100992.27;;;0.76;78.22
50682;BME280;36779;52.168;20.878;2023-12-07T10:32:19;100991.77;;;0.75;78.16
50682;BME280;36779;52.168;20.878;2023-12-07T10:35:07;100991.61;;;0.79;78.10
50682;BME280;36779;52.168;20.878;2023-12-07T10:37:57;100996.21;;;0.84;78.18
50682;BME280;36779;52.168;20.878;2023-12-07T10:40:45;100997.40;;;0.90;78.26
50682;BME280;36779;52.168;20.878;2023-12-07T10:43:37;100997.91;;;0.94;78.17
50682;BME280;36779;52.168;20.878;2023-12-07T10:46:27;100993.94;;;0.90;78.08
50682;BME280;36779;52.168;20.878;2023-12-07T10:49:20;100994.30;;;0.87;78.08
50682;BME280;36779;52.168;20.878;2023-12-07T10:52:24;100989.71;;;0.81;78.07
50682;BME280;36779;52.168;20.878;2023-12-07T10:55:18;100990.13;;;0.77;78.10
50682;BME280;36779;52.168;20.878;2023-12-07T10:58:02;100989.32;;;0.79;78.34
50682;BME280;36779;52.168;20.878;2023-12-07T11:00:53;100987.70;;;0.82;78.31
50682;BME280;36779;52.168;20.878;2023-12-07T11:03:44;100991.65;;;0.84;78.17
50682;BME280;36779;52.168;20.878;2023-12-07T11:06:34;100991.80;;;0.87;78.11
50682;BME280;36779;52.168;20.878;2023-12-07T11:09:27;100987.55;;;0.95;78.14
50682;BME280;36779;52.168;20.878;2023-12-07T11:12:23;100988.17;;;0.99;78.07
50682;BME280;36779;52.168;20.878;2023-12-07T11:15:17;100987.07;;;1.03;78.19
50682;BME280;36779;52.168;20.878;2023-12-07T11:18:06;100983.39;;;1.09;78.31
50682;BME280;36779;52.168;20.878;2023-12-07T11:20:57;100983.23;;;1.12;78.32
50682;BME280;36779;52.168;20.878;2023-12-07T11:23:40;100973.59;;;1.06;78.03
50682;BME280;36779;52.168;20.878;2023-12-07T11:26:30;100973.52;;;0.98;78.10
50682;BME280;36779;52.168;20.878;2023-12-07T11:29:21;100970.02;;;0.95;78.08
50682;BME280;36779;52.168;20.878;2023-12-07T11:32:18;100969.95;;;0.96;78.22
50682;BME280;36779;52.168;20.878;2023-12-07T11:35:16;100968.03;;;0.96;78.07
50682;BME280;36779;52.168;20.878;2023-12-07T11:38:05;100967.86;;;0.96;78.06
50682;BME280;36779;52.168;20.878;2023-12-07T11:40:55;100970.54;;;0.95;77.85
50682;BME280;36779;52.168;20.878;2023-12-07T11:43:45;100972.29;;;0.89;77.79
50682;BME280;36779;52.168;20.878;2023-12-07T11:46:37;100979.92;;;0.84;77.84
50682;BME280;36779;52.168;20.878;2023-12-07T11:49:27;100982.04;;;0.83;77.95
50682;BME280;36779;52.168;20.878;2023-12-07T11:52:37;100977.85;;;0.80;77.99
50682;BME280;36779;52.168;20.878;2023-12-07T11:55:17;100979.65;;;0.73;77.90
50682;BME280;36779;52.168;20.878;2023-12-07T11:58:06;100977.65;;;0.65;77.83
50682;BME280;36779;52.168;20.878;2023-12-07T12:00:57;100976.17;;;0.63;77.92
50682;BME280;36779;52.168;20.878;2023-12-07T12:03:48;100975.29;;;0.60;78.01
50682;BME280;36779;52.168;20.878;2023-12-07T12:06:36;100972.47;;;0.57;77.90
50682;BME280;36779;52.168;20.878;2023-12-07T12:09:25;100972.33;;;0.54;77.85
50682;BME280;36779;52.168;20.878;2023-12-07T12:12:21;100977.29;;;0.49;77.79
50682;BME280;36779;52.168;20.878;2023-12-07T12:15:11;100979.63;;;0.48;77.76
50682;BME280;36779;52.168;20.878;2023-12-07T12:18:00;100981.33;;;0.45;77.67
50682;BME280;36779;52.168;20.878;2023-12-07T12:20:51;100981.18;;;0.52;77.97
50682;BME280;36779;52.168;20.878;2023-12-07T12:23:40;100983.36;;;0.60;78.01
50682;BME280;36779;52.168;20.878;2023-12-07T12:26:31;100987.45;;;0.61;77.98
50682;BME280;36779;52.168;20.878;2023-12-07T12:29:21;100984.30;;;0.58;78.03
50682;BME280;36779;52.168;20.878;2023-12-07T12:32:42;100982.40;;;0.52;77.91
50682;BME280;36779;52.168;20.878;2023-12-07T12:35:32;100985.35;;;0.46;77.99
50682;BME280;36779;52.168;20.878;2023-12-07T12:38:21;100983.04;;;0.43;77.91
50682;BME280;36779;52.168;20.878;2023-12-07T12:41:23;100984.37;;;0.41;77.96
50682;BME280;36779;52.168;20.878;2023-12-07T12:44:12;100985.80;;;0.41;77.85
50682;BME280;36779;52.168;20.878;2023-12-07T12:47:15;100987.92;;;0.43;77.81
50682;BME280;36779;52.168;20.878;2023-12-07T12:50:11;100986.08;;;0.45;77.87
50682;BME280;36779;52.168;20.878;2023-12-07T12:53:03;100986.44;;;0.48;77.99
50682;BME280;36779;52.168;20.878;2023-12-07T12:55:46;100987.39;;;0.50;78.05
50682;BME280;36779;52.168;20.878;2023-12-07T12:58:36;100990.15;;;0.47;78.12
50682;BME280;36779;52.168;20.878;2023-12-07T13:01:28;100988.69;;;0.42;77.94
50682;BME280;36779;52.168;20.878;2023-12-07T13:04:18;100988.88;;;0.35;77.90
50682;BME280;36779;52.168;20.878;2023-12-07T13:07:09;100986.61;;;0.35;77.97
50682;BME280;36779;52.168;20.878;2023-12-07T13:09:58;100986.56;;;0.30;77.78
50682;BME280;36779;52.168;20.878;2023-12-07T13:12:48;100991.94;;;0.27;77.71
50682;BME280;36779;52.168;20.878;2023-12-07T13:15:41;100995.55;;;0.25;77.64
50682;BME280;36779;52.168;20.878;2023-12-07T13:18:30;100996.77;;;0.25;77.76
50682;BME280;36779;52.168;20.878;2023-12-07T13:21:41;100999.09;;;0.24;77.78
50682;BME280;36779;52.168;20.878;2023-12-07T13:24:33;100996.58;;;0.22;77.84
50682;BME280;36779;52.168;20.878;2023-12-07T13:27:24;100997.77;;;0.19;77.87
50682;BME280;36779;52.168;20.878;2023-12-07T13:30:08;101004.08;;;0.16;77.89
50682;BME280;36779;52.168;20.878;2023-12-07T13:32:58;101005.66;;;0.12;77.86
50682;BME280;36779;52.168;20.878;2023-12-07T13:35:49;101007.02;;;0.06;77.82
50682;BME280;36779;52.168;20.878;2023-12-07T13:38:41;101009.86;;;0.02;77.83
50682;BME280;36779;52.168;20.878;2023-12-07T13:41:31;101008.20;;;-0.04;77.89
50682;BME280;36779;52.168;20.878;2023-12-07T13:44:23;101008.92;;;-0.04;77.91
50682;BME280;36779;52.168;20.878;2023-12-07T13:47:18;101008.23;;;-0.04;77.77
50682;BME280;36779;52.168;20.878;2023-12-07T13:50:16;101006.75;;;-0.09;77.64
50682;BME280;36779;52.168;20.878;2023-12-07T13:53:05;101004.88;;;-0.13;77.54
50682;BME280;36779;52.168;20.878;2023-12-07T13:55:54;101013.21;;;-0.09;77.78
50682;BME280;36779;52.168;20.878;2023-12-07T13:58:42;101014.89;;;-0.11;77.62
50682;BME280;36779;52.168;20.878;2023-12-07T14:01:32;101016.90;;;-0.16;77.58
50682;BME280;36779;52.168;20.878;2023-12-07T14:04:23;101017.85;;;-0.21;77.64
50682;BME280;36779;52.168;20.878;2023-12-07T14:07:19;101022.04;;;-0.28;77.64
50682;BME280;36779;52.168;20.878;2023-12-07T14:09:59;101026.52;;;-0.34;77.60
50682;BME280;36779;52.168;20.878;2023-12-07T14:12:49;101030.16;;;-0.40;77.67
50682;BME280;36779;52.168;20.878;2023-12-07T14:15:39;101031.54;;;-0.47;77.66
50682;BME280;36779;52.168;20.878;2023-12-07T14:18:49;101033.93;;;-0.53;77.70
50682;BME280;36779;52.168;20.878;2023-12-07T14:21:56;101033.95;;;-0.53;77.67
50682;BME280;36779;52.168;20.878;2023-12-07T14:24:45;101033.88;;;-0.52;77.69
50682;BME280;36779;52.168;20.878;2023-12-07T14:27:36;101033.42;;;-0.50;77.60
50682;BME280;36779;52.168;20.878;2023-12-07T14:30:25;101033.55;;;-0.45;77.86
50682;BME280;36779;52.168;20.878;2023-12-07T14:33:21;101034.55;;;-0.41;77.84
50682;BME280;36779;52.168;20.878;2023-12-07T14:36:11;101032.60;;;-0.40;77.77
50682;BME280;36779;52.168;20.878;2023-12-07T14:39:01;101034.84;;;-0.46;77.79
50682;BME280;36779;52.168;20.878;2023-12-07T14:41:55;101037.60;;;-0.53;77.68
50682;BME280;36779;52.168;20.878;2023-12-07T14:44:45;101036.21;;;-0.60;77.72
50682;BME280;36779;52.168;20.878;2023-12-07T14:47:43;101031.63;;;-0.66;77.58
50682;BME280;36779;52.168;20.878;2023-12-07T14:50:35;101032.10;;;-0.73;77.68
50682;BME280;36779;52.168;20.878;2023-12-07T14:53:26;101034.44;;;-0.78;77.67